Latest Weather Observations for Norah Head

IDN60801

Issued at 7:02 am EDT Thursday 19 January 2017 (issued every 30 minutes, with the page automatically refreshed every 10 minutes)

About weather observations | Map of weather stations | Latest weather observations for NSW | Other Formats
Station Details ID: 061366 Name: NORAH HEAD AWS Lat: -33.28 Lon: 151.58 Height: 18.8 m
Data from the previous 72 hours. | See also: Recent months at Norah Head
Date/Time
EDT
Temp
°C
App
Temp
°C
Dew
Point
°C
Rel
Hum
%
Delta-T
°C
Wind Press
QNH
hPa
Press
MSL
hPa
Rain since
9am
mm
Dir  Spd
km/h
Gust
km/h
Spd
kts
Gust
kts
19/06:30am 21.5 21.2 17.3 77 2.6 S 15 28 8 15 1014.1 1014.0 0.0
19/06:00am 21.6 21.1 17.0 75 2.8 SSW 15 20 8 11 1013.8 1013.7 0.0
19/05:30am 21.6 21.6 17.2 76 2.7 SSW 13 19 7 10 1013.5 1013.4 0.0
19/05:00am 21.4 21.1 16.4 73 3.0 SSW 13 19 7 10 1013.4 1013.3 0.0
19/04:30am 21.5 20.3 16.0 71 3.3 S 17 22 9 12 1013.4 1013.3 0.0
19/04:00am 21.5 19.5 15.6 69 3.5 S 20 28 11 15 1013.4 1013.3 0.0
19/03:30am 21.5 18.2 14.9 66 3.9 S 26 35 14 19 1013.4 1013.3 0.0
19/03:00am 21.6 18.6 15.9 70 3.4 S 26 33 14 18 1013.6 1013.5 0.0
19/02:30am 21.3 17.2 14.9 67 3.8 S 30 35 16 19 1013.8 1013.7 0.0
19/02:00am 21.3 17.4 15.6 70 3.4 S 30 37 16 20 1014.0 1013.9 0.0
19/01:30am 21.2 16.6 16.2 73 3.0 S 35 43 19 23 1014.3 1014.2 0.0
19/01:00am 21.0 16.4 17.0 78 2.4 S 37 43 20 23 1014.6 1014.5 0.0
19/12:30am 20.4 15.5 17.4 83 1.8 S 39 48 21 26 1014.5 1014.4 0.0
19/12:00am 20.9 17.0 18.7 87 1.4 S 37 44 20 24 1014.5 1014.4 0.0
 
Date/Time
EDT
Temp
°C
App
Temp
°C
Dew
Point
°C
Rel
Hum
%
Delta-T
°C
Wind Press
QNH
hPa
Press
MSL
hPa
Rain since
9am
mm
Dir  Spd
km/h
Gust
km/h
Spd
kts
Gust
kts
18/11:30pm 21.6 17.9 18.4 82 2.0 S 35 41 19 22 1014.5 1014.4 0.0
18/11:00pm 21.7 19.3 18.3 81 2.1 S 28 32 15 17 1015.1 1015.0 0.0
18/10:30pm 21.8 19.5 18.4 81 2.1 S 28 33 15 18 1014.9 1014.8 0.0
18/10:00pm 21.9 18.5 18.9 83 1.9 S 35 43 19 23 1014.6 1014.5 0.0
18/09:30pm 22.4 20.0 19.0 81 2.2 S 30 37 16 20 1014.8 1014.7 0.0
18/09:00pm 22.4 19.7 19.2 82 2.0 S 32 39 17 21 1014.1 1014.0 0.0
18/08:30pm 22.4 17.9 19.0 81 2.2 S 41 50 22 27 1013.1 1013.0 0.0
18/08:00pm 22.4 17.6 19.6 84 1.8 SSE 44 54 24 29 1012.1 1012.0 0.0
18/07:30pm 22.8 20.5 20.1 85 1.7 S 32 41 17 22 1011.0 1010.9 0.0
18/07:00pm 23.1 20.8 20.6 86 1.6 S 33 41 18 22 1010.2 1010.1 0.0
18/06:30pm 23.4 20.4 20.7 85 1.8 S 37 41 20 22 1009.5 1009.4 0.0
18/06:00pm 23.8 20.4 20.7 83 2.0 S 39 46 21 25 1008.0 1008.0 0.0
18/05:30pm 24.4 21.5 20.9 81 2.3 S 37 44 20 24 1007.5 1007.5 0.0
18/05:00pm 25.6 25.4 21.3 77 2.9 SSW 24 28 13 15 1007.3 1007.3 0.0
18/04:30pm 24.4 23.1 20.7 80 2.4 S 28 32 15 17 1006.6 1006.6 0.0
18/04:00pm 24.2 22.4 21.1 83 2.0 S 32 37 17 20 1006.6 1006.6 0.0
18/03:30pm 25.0 23.4 21.5 81 2.3 SSW 32 35 17 19 1006.3 1006.3 0.0
18/03:00pm 24.7 24.2 21.4 82 2.2 SSW 26 30 14 16 1006.0 1006.0 0.0
18/02:30pm 25.9 25.2 21.1 75 3.2 SSW 26 32 14 17 1005.5 1005.5 0.0
18/02:00pm 25.7 26.1 20.7 74 3.3 SSW 19 22 10 12 1005.8 1005.8 0.0
18/01:30pm 27.0 27.7 21.5 72 3.7 SSW 20 22 11 12 1005.4 1005.4 0.0
18/01:00pm 27.1 27.3 21.4 71 3.8 SSW 22 24 12 13 1005.7 1005.7 0.0
18/12:30pm 27.0 27.3 21.5 72 3.7 SSW 22 28 12 15 1006.0 1006.0 0.0
18/12:00pm 26.7 26.3 21.7 74 3.3 SSW 26 32 14 17 1006.0 1006.0 0.0
18/11:30am 27.4 26.9 21.4 70 4.0 SSW 26 33 14 18 1005.7 1005.7 0.0
18/11:17am 28.2 26.6 20.0 61 5.4 SSW 28 44 15 24 1005.4 1005.4 0.0
18/11:09am 33.2 33.1 17.8 40 9.9 WNW 15 35 8 19 1005.5 1005.5 0.0
18/11:00am 39.3 38.8 16.8 26 14.6 NW 15 28 8 15 1004.2 1004.2 0.0
18/10:30am 38.9 39.1 17.6 28 13.9 NW 13 33 7 18 1004.9 1004.9 0.0
18/10:00am 38.9 39.1 17.6 28 14.0 W 13 26 7 14 1005.2 1005.2 0.0
18/09:30am 37.3 36.4 16.8 29 13.2 WNW 17 37 9 20 1005.5 1005.5 0.0
18/09:00am 36.4 36.3 17.0 31 12.5 NW 13 37 7 20 1005.7 1005.7 0.0
18/08:30am 34.8 34.0 17.1 35 11.3 NW 17 32 9 17 1005.7 1005.7 0.0
18/08:00am 34.3 33.9 17.1 36 11.0 WNW 15 33 8 18 1005.7 1005.7 0.0
18/07:30am 34.3 33.7 16.6 34 11.3 NW 15 39 8 21 1005.3 1005.3 0.0
18/07:00am 33.6 33.1 16.9 37 10.7 NW 15 30 8 16 1004.9 1004.9 0.0
18/06:30am 33.3 32.3 16.6 36 10.6 WNW 17 33 9 18 1004.6 1004.6 0.0
18/06:00am 33.1 32.4 16.5 37 10.5 WNW 15 33 8 18 1004.3 1004.3 0.0
18/05:30am 32.9 32.5 16.3 37 10.5 WNW 13 30 7 16 1004.0 1004.0 0.0
18/05:00am 32.6 32.7 16.4 37 10.2 WNW 11 30 6 16 1004.0 1004.0 0.0
18/04:30am 32.3 33.1 17.4 41 9.5 NW 9 24 5 13 1003.8 1003.7 0.0
18/04:27am 32.2 33.2 17.7 42 9.3 NW 9 24 5 13 1003.8 1003.7 0.0
18/04:00am 27.2 29.3 19.3 62 5.1 NNW 7 15 4 8 1003.8 1003.7 0.0
18/03:30am 26.3 28.5 20.4 70 3.9 NW 9 13 5 7 1004.1 1004.1 0.0
18/03:00am 25.6 28.6 21.9 80 2.5 NNW 9 11 5 6 1004.4 1004.4 0.0
18/02:30am 24.3 26.9 21.2 83 2.0 NNW 9 11 5 6 1004.7 1004.7 0.0
18/02:00am 24.1 26.6 21.0 83 2.0 N 9 9 5 5 1005.1 1005.1 0.0
18/01:30am 23.9 26.7 20.8 83 2.0 N 7 9 4 5 1005.4 1005.4 0.0
18/01:00am 24.4 26.9 21.1 82 2.2 N 9 11 5 6 1005.9 1005.9 0.0
18/12:30am 24.3 26.4 21.0 82 2.2 NNE 11 15 6 8 1006.3 1006.3 0.0
18/12:00am 24.4 26.7 20.7 80 2.4 NNW 9 15 5 8 1006.6 1006.6 0.0
 
Date/Time
EDT
Temp
°C
App
Temp
°C
Dew
Point
°C
Rel
Hum
%
Delta-T
°C
Wind Press
QNH
hPa
Press
MSL
hPa
Rain since
9am
mm
Dir  Spd
km/h
Gust
km/h
Spd
kts
Gust
kts
17/11:30pm 24.2 24.6 20.7 81 2.3 NE 19 20 10 11 1006.9 1006.9 0.0
17/11:00pm 24.6 24.8 20.5 78 2.7 NE 20 20 11 11 1007.0 1007.0 0.0
17/10:30pm 24.7 23.8 20.6 78 2.7 NNE 26 30 14 16 1007.1 1007.1 0.0
17/10:00pm 25.3 24.3 20.5 75 3.1 NNE 26 30 14 16 1007.4 1007.4 0.0
17/09:30pm 24.6 23.8 20.9 80 2.4 NNE 26 30 14 16 1007.4 1007.4 0.0
17/09:00pm 25.3 22.9 21.0 77 2.8 NNE 35 39 19 21 1007.2 1007.2 0.0
17/08:30pm 24.9 22.9 20.8 78 2.7 NNE 32 35 17 19 1007.1 1007.1 0.0
17/08:00pm 24.9 22.1 21.0 79 2.6 NNE 37 41 20 22 1006.9 1006.9 0.0
17/07:30pm 24.3 21.0 20.8 81 2.3 NNE 39 43 21 23 1006.6 1006.6 0.0
17/07:00pm 24.8 20.7 20.7 78 2.7 NNE 43 46 23 25 1006.5 1006.5 0.0
17/06:30pm 24.8 20.6 20.9 79 2.6 NNE 44 50 24 27 1006.5 1006.5 0.0
17/06:00pm 24.6 22.2 21.1 81 2.3 NNE 35 43 19 23 1006.9 1006.9 0.0
17/05:30pm 25.1 22.3 21.0 78 2.7 NE 37 43 20 23 1007.0 1007.0 0.0
17/05:00pm 26.1 24.7 21.1 74 3.3 NE 30 35 16 19 1007.5 1007.5 0.0
17/04:30pm 28.3 29.1 21.8 68 4.4 NE 20 28 11 15 1008.2 1008.2 0.0
17/04:00pm 28.0 27.3 21.8 69 4.2 ENE 28 33 15 18 1008.2 1008.2 0.0
17/03:30pm 28.1 27.7 22.3 70 3.9 NE 28 32 15 17 1008.5 1008.5 0.0
17/03:00pm 26.4 26.4 21.6 75 3.2 NE 24 30 13 16 1008.8 1008.8 0.0
17/02:30pm 27.4 26.8 21.9 72 3.7 NE 28 32 15 17 1009.0 1009.0 0.0
17/02:00pm 28.4 28.4 22.4 70 4.1 NE 26 30 14 16 1009.8 1009.7 0.0
17/01:30pm 28.6 28.4 22.1 68 4.4 NE 26 30 14 16 1010.2 1010.1 0.0
17/01:00pm 28.9 29.3 22.4 68 4.4 NE 24 28 13 15 1011.0 1010.9 0.0
17/12:30pm 28.2 29.0 21.7 68 4.4 NE 20 24 11 13 1011.6 1011.5 0.0
17/12:00pm 27.6 28.3 21.6 70 4.0 NE 20 24 11 13 1012.0 1011.9 0.0
17/11:30am 27.6 29.0 21.9 71 3.8 NE 17 20 9 11 1012.6 1012.5 0.0
17/11:00am 27.0 28.6 21.5 72 3.7 NE 15 19 8 10 1013.0 1012.9 0.0
17/10:30am 26.3 28.7 21.5 75 3.2 NE 11 13 6 7 1013.4 1013.3 0.0
17/10:00am 24.9 27.7 20.8 78 2.7 NE 7 9 4 5 1013.7 1013.6 0.0
17/09:30am 24.4 27.3 21.1 82 2.2 NNE 7 9 4 5 1013.9 1013.8 0.0
17/09:00am 23.7 26.5 20.8 84 1.9 NNE 7 9 4 5 1014.1 1014.0 0.0
17/08:30am 23.0 25.9 21.1 89 1.2 NNE 7 9 4 5 1014.5 1014.4 0.0
17/08:00am 21.6 24.3 20.2 92 0.9 S 6 7 3 4 1014.2 1014.1 0.0
17/07:30am 21.3 24.9 20.6 96 0.5 SSW 2 4 1 2 1014.0 1013.9 0.0
17/07:00am 20.8 24.5 20.8 100 0.0 NW 2 7 1 4 1013.8 1013.7 0.0
17/06:30am 20.3 22.8 20.3 100 0.0 N 7 9 4 5 1013.5 1013.4 0.0
17/06:00am 20.1 23.5 20.1 100 0.0 W 2 6 1 3 1013.5 1013.4 0.0
17/05:30am 21.1 23.3 21.1 100 0.0 N 11 15 6 8 1013.6 1013.5 0.0
17/05:00am 21.4 23.3 21.4 100 0.0 N 13 19 7 10 1013.1 1013.0 0.0
17/04:30am 21.3 23.2 21.3 100 0.0 NNE 13 17 7 9 1013.0 1012.9 0.0
17/04:00am 21.3 23.2 21.3 100 0.0 N 13 15 7 8 1013.0 1012.9 0.0
17/03:30am 21.0 23.1 21.0 100 0.0 N 11 13 6 7 1013.2 1013.1 0.0
17/03:00am 20.9 23.7 20.9 100 0.0 NNW 7 11 4 6 1013.5 1013.4 0.0
17/02:30am 20.9 23.0 20.9 100 0.0 N 11 13 6 7 1013.5 1013.4 0.0
17/02:00am 21.1 22.5 21.1 100 0.0 NNE 15 17 8 9 1013.7 1013.6 0.0
17/01:30am 21.1 22.5 21.1 100 0.0 NNE 15 17 8 9 1013.8 1013.7 0.0
17/01:00am 21.2 22.3 21.2 100 0.0 NNE 17 20 9 11 1014.0 1013.9 0.0
17/12:30am 21.4 22.0 21.4 100 0.0 NNE 20 22 11 12 1014.4 1014.3 0.0
17/12:00am 21.5 22.1 21.3 99 0.1 NNE 20 24 11 13 1014.6 1014.5 0.0
 
Date/Time
EDT
Temp
°C
App
Temp
°C
Dew
Point
°C
Rel
Hum
%
Delta-T
°C
Wind Press
QNH
hPa
Press
MSL
hPa
Rain since
9am
mm
Dir  Spd
km/h
Gust
km/h
Spd
kts
Gust
kts
16/11:30pm 21.7 21.5 21.2 97 0.3 NNE 24 30 13 16 1014.8 1014.7 0.0
16/11:00pm 22.0 21.0 21.2 95 0.5 NNE 28 33 15 18 1014.9 1014.8 0.0
16/10:30pm 22.2 20.3 21.0 93 0.8 NNE 32 37 17 20 1015.1 1015.0 0.0
16/10:00pm 22.4 20.0 21.0 92 0.9 NNE 35 41 19 22 1015.0 1014.9 0.0
16/09:30pm 22.5 20.0 20.8 90 1.1 NE 35 43 19 23 1014.9 1014.8 0.0
16/09:00pm 22.5 19.5 20.6 89 1.2 NE 37 43 20 23 1014.7 1014.6 0.0
16/08:30pm 22.5 19.2 20.0 86 1.6 NE 37 46 20 25 1014.5 1014.4 0.0
16/08:00pm 22.6 19.2 19.8 84 1.8 NE 37 46 20 25 1014.2 1014.1 0.0
16/07:30pm 22.8 18.9 19.6 82 2.0 NE 39 44 21 24 1014.1 1014.0 0.0
16/07:00pm 23.1 19.9 19.5 80 2.3 NE 35 43 19 23 1014.0 1013.9 0.0
16/06:30pm 23.4 20.6 19.5 79 2.5 NE 33 39 18 21 1013.9 1013.8 0.0
16/06:00pm 23.8 20.7 19.7 78 2.6 NE 35 43 19 23 1013.7 1013.6 0.0
16/05:30pm 24.4 21.1 20.1 77 2.8 NE 37 44 20 24 1013.4 1013.3 0.0
16/05:00pm 24.6 22.0 19.9 75 3.0 NE 33 41 18 22 1013.6 1013.5 0.0
16/04:30pm 25.3 22.7 19.9 72 3.5 NE 33 41 18 22 1013.9 1013.8 0.0
16/04:00pm 25.5 22.9 19.9 71 3.6 NE 33 39 18 21 1014.0 1013.9 0.0
16/03:30pm 26.5 24.0 20.1 68 4.2 NE 33 39 18 21 1014.1 1014.0 0.0
16/03:00pm 26.3 23.7 19.9 68 4.2 NE 33 39 18 21 1014.2 1014.1 0.0
16/02:30pm 27.0 24.7 20.1 66 4.5 NE 32 37 17 20 1014.5 1014.4 0.0
16/02:00pm 28.1 26.3 20.4 63 5.1 NE 30 35 16 19 1014.8 1014.7 0.0
16/01:30pm 27.7 26.0 19.8 62 5.1 NE 28 33 15 18 1015.3 1015.2 0.0
16/01:00pm 27.8 26.1 19.8 61 5.2 NE 28 33 15 18 1015.6 1015.5 0.0
16/12:30pm 28.2 27.2 20.5 63 5.1 NE 26 30 14 16 1016.0 1015.9 0.0
16/12:00pm 27.8 27.0 20.1 63 5.0 NE 24 26 13 14 1016.4 1016.3 0.0
16/11:30am 27.7 27.4 20.3 64 4.9 NE 22 26 12 14 1016.6 1016.5 0.0
16/11:00am 27.4 28.0 21.4 70 4.0 NE 20 24 11 13 1016.8 1016.7 0.0
16/10:30am 24.8 25.2 20.7 78 2.7 NE 19 22 10 12 1016.9 1016.8 0.0
16/10:00am 24.3 25.1 20.6 80 2.4 NE 17 20 9 11 1017.0 1016.9 0.0
16/09:30am 23.6 24.7 20.5 83 2.0 NE 15 19 8 10 1017.2 1017.1 0.0
16/09:00am 23.1 23.9 19.9 82 2.1 NE 15 19 8 10 1017.5 1017.4 0.0
16/08:30am 24.4 24.7 19.7 75 3.0 NE 17 20 9 11 1017.4 1017.3 0.0
16/08:00am 24.1 24.6 20.8 82 2.2 NE 19 20 10 11 1017.2 1017.1 0.0
16/07:30am 23.1 23.1 20.2 84 1.9 NE 20 22 11 12 1017.0 1016.9 0.0

Other Formats:

Comma delimited format used in spreadsheet applications
http://www.bom.gov.au/fwo/IDN60801/IDN60801.95770.axf

JavaScript Object Notation format (JSON) in row-major order
http://www.bom.gov.au/fwo/IDN60801/IDN60801.95770.json